createdAt,value
2022-11-24T00:01:19.245Z,16.63
2022-11-24T00:04:23.594Z,16.68
2022-11-24T00:07:29.759Z,16.54
2022-11-24T00:10:34.108Z,16.64
2022-11-24T00:13:38.206Z,16.78
2022-11-24T00:16:41.642Z,16.65
2022-11-24T00:19:45.594Z,16.53
2022-11-24T00:22:48.781Z,16.61
2022-11-24T00:25:54.990Z,16.44
2022-11-24T00:29:02.125Z,16.25
2022-11-24T00:32:05.120Z,16.26
2022-11-24T00:35:08.492Z,16.19
2022-11-24T00:38:14.277Z,16.36
2022-11-24T00:41:19.802Z,16.20
2022-11-24T00:44:22.960Z,16.04
2022-11-24T00:47:28.583Z,16.10
2022-11-24T00:50:32.635Z,15.99
2022-11-24T00:53:36.283Z,16.02
2022-11-24T00:56:39.421Z,16.20
2022-11-24T00:59:44.901Z,16.36
2022-11-24T01:02:48.178Z,16.12
2022-11-24T01:05:51.465Z,16.00
2022-11-24T01:08:55.421Z,16.04
2022-11-24T01:11:58.600Z,15.93
2022-11-24T01:15:01.852Z,15.98
2022-11-24T01:18:05.427Z,16.04
2022-11-24T01:21:10.312Z,15.97
2022-11-24T01:24:14.455Z,15.80
2022-11-24T01:27:17.590Z,15.71
2022-11-24T01:30:21.046Z,15.80
2022-11-24T01:33:37.898Z,15.86
2022-11-24T01:36:41.127Z,15.77
2022-11-24T01:39:44.465Z,15.72
2022-11-24T01:42:50.684Z,15.67
2022-11-24T01:45:58.363Z,15.70
2022-11-24T01:49:10.358Z,15.65
2022-11-24T01:52:15.058Z,15.65
2022-11-24T01:55:23.124Z,15.72
2022-11-24T01:58:28.311Z,15.84
2022-11-24T02:01:31.883Z,15.75
2022-11-24T02:04:35.613Z,15.52
2022-11-24T02:07:41.590Z,15.48
2022-11-24T02:10:46.690Z,15.33
2022-11-24T02:13:51.450Z,15.29
2022-11-24T02:16:54.705Z,15.45
2022-11-24T02:20:03.099Z,15.30
2022-11-24T02:23:23.910Z,15.29
2022-11-24T02:26:39.805Z,15.33
2022-11-24T02:29:43.724Z,15.40
2022-11-24T02:32:47.230Z,15.32
2022-11-24T02:35:50.362Z,15.52
2022-11-24T02:38:53.664Z,15.38
2022-11-24T02:42:09.330Z,15.32
2022-11-24T02:45:13.175Z,15.18
2022-11-24T02:48:17.019Z,15.40
2022-11-24T02:51:20.241Z,15.22
2022-11-24T02:54:23.612Z,15.13
2022-11-24T02:57:26.863Z,15.21
2022-11-24T03:00:30.039Z,15.36
2022-11-24T03:03:35.632Z,15.35
2022-11-24T03:06:38.965Z,15.27
2022-11-24T03:09:44.472Z,15.27
2022-11-24T03:12:47.641Z,15.13
2022-11-24T03:15:50.948Z,15.12
2022-11-24T03:18:54.619Z,15.10
2022-11-24T03:21:57.876Z,15.03
2022-11-24T03:25:01.034Z,14.97
2022-11-24T03:28:06.731Z,15.08
2022-11-24T03:31:12.974Z,14.97
2022-11-24T03:34:16.192Z,14.97
2022-11-24T03:37:19.394Z,14.94
2022-11-24T03:40:22.578Z,15.09
2022-11-24T03:43:26.317Z,15.05
2022-11-24T03:46:29.489Z,14.87
2022-11-24T03:49:33.046Z,14.94
2022-11-24T03:52:38.782Z,14.78
2022-11-24T03:55:44.217Z,14.91
2022-11-24T03:58:47.948Z,14.91
2022-11-24T04:01:52.244Z,15.00
2022-11-24T04:04:55.814Z,14.95
2022-11-24T04:07:59.078Z,15.01
2022-11-24T04:11:02.242Z,14.93
2022-11-24T04:14:09.220Z,14.85
2022-11-24T04:17:16.552Z,14.82
2022-11-24T04:20:19.767Z,14.76
2022-11-24T04:23:23.174Z,14.62
2022-11-24T04:26:26.416Z,14.71
2022-11-24T04:29:29.681Z,14.72
2022-11-24T04:32:32.933Z,14.76
2022-11-24T04:35:36.609Z,14.79
2022-11-24T04:39:24.197Z,14.68
2022-11-24T04:42:03.123Z,14.51
2022-11-24T04:45:07.422Z,14.53
2022-11-24T04:48:12.921Z,14.65
2022-11-24T04:51:16.368Z,14.67
2022-11-24T04:54:22.451Z,14.56
2022-11-24T04:57:26.919Z,14.73
2022-11-24T05:00:30.104Z,14.92
2022-11-24T05:03:33.224Z,14.94
2022-11-24T05:06:36.412Z,15.19
2022-11-24T05:09:58.472Z,15.23
2022-11-24T05:13:10.607Z,15.27
2022-11-24T05:16:13.797Z,15.44
2022-11-24T05:19:17.316Z,15.32
2022-11-24T05:22:20.420Z,15.55
2022-11-24T05:25:23.555Z,15.55
2022-11-24T05:28:26.840Z,15.47
2022-11-24T05:31:32.086Z,15.64
2022-11-24T05:34:35.507Z,15.73
2022-11-24T05:37:42.006Z,15.68
2022-11-24T05:40:45.508Z,15.56
2022-11-24T05:43:48.761Z,15.55
2022-11-24T05:46:52.665Z,15.45
2022-11-24T05:49:55.902Z,15.30
2022-11-24T05:53:06.364Z,15.31
2022-11-24T05:56:09.761Z,15.25
2022-11-24T05:59:12.865Z,15.24
2022-11-24T06:02:18.595Z,15.09
2022-11-24T06:05:21.901Z,15.00
2022-11-24T06:08:30.705Z,15.02
2022-11-24T06:11:34.371Z,15.13
2022-11-24T06:14:38.160Z,15.28
2022-11-24T06:17:41.534Z,15.41
2022-11-24T06:21:02.807Z,15.51
2022-11-24T06:24:10.986Z,15.56
2022-11-24T06:27:16.542Z,15.57
2022-11-24T06:30:25.094Z,15.59
2022-11-24T06:33:30.732Z,15.54
2022-11-24T06:36:34.014Z,15.44
2022-11-24T06:39:37.351Z,15.42
2022-11-24T06:42:40.677Z,15.34
2022-11-24T06:45:43.917Z,15.39
2022-11-24T06:48:47.819Z,15.43
2022-11-24T06:51:51.494Z,15.29
2022-11-24T06:54:54.622Z,15.33
2022-11-24T06:57:57.835Z,15.35
2022-11-24T07:01:03.033Z,15.40
2022-11-24T07:04:06.262Z,15.38
2022-11-24T07:07:09.457Z,15.27
2022-11-24T07:10:12.706Z,15.35
2022-11-24T07:13:15.925Z,15.48
2022-11-24T07:16:21.465Z,15.62
2022-11-24T07:19:25.313Z,15.74
2022-11-24T07:22:28.607Z,15.83
2022-11-24T07:25:31.680Z,15.93
2022-11-24T07:28:35.499Z,15.93
2022-11-24T07:31:38.859Z,15.71
2022-11-24T07:34:42.163Z,15.69
2022-11-24T07:37:45.374Z,15.72
2022-11-24T07:40:48.470Z,15.75
2022-11-24T07:43:53.966Z,15.77
2022-11-24T07:46:59.453Z,15.76
2022-11-24T07:50:02.855Z,15.73
2022-11-24T07:53:06.150Z,15.74
2022-11-24T07:56:10.498Z,15.78
2022-11-24T07:59:16.037Z,15.90
2022-11-24T08:02:19.121Z,15.71
2022-11-24T08:05:22.540Z,15.96
2022-11-24T08:08:25.886Z,15.93
2022-11-24T08:11:29.557Z,15.77
2022-11-24T08:14:32.930Z,15.59
2022-11-24T08:17:36.390Z,15.57
2022-11-24T08:20:39.559Z,15.72
2022-11-24T08:23:43.132Z,15.72
2022-11-24T08:26:48.295Z,15.77
2022-11-24T08:29:51.501Z,15.88
2022-11-24T08:32:54.711Z,15.83
2022-11-24T08:35:58.088Z,15.79
2022-11-24T08:39:01.688Z,15.88
2022-11-24T08:42:05.174Z,15.78
2022-11-24T08:45:20.283Z,15.72
2022-11-24T08:48:24.505Z,15.70
2022-11-24T08:51:30.519Z,15.65
2022-11-24T08:54:33.921Z,15.69
2022-11-24T08:57:37.341Z,15.61
2022-11-24T09:00:40.539Z,15.53
2022-11-24T09:03:50.307Z,15.49
2022-11-24T09:06:54.307Z,15.52
2022-11-24T09:09:57.479Z,15.62
2022-11-24T09:13:01.725Z,15.55
2022-11-24T09:16:11.972Z,15.48
2022-11-24T09:19:15.144Z,15.54
2022-11-24T09:22:18.211Z,15.42
2022-11-24T09:25:21.390Z,15.44
2022-11-24T09:28:24.578Z,15.27
2022-11-24T09:31:36.555Z,15.31
2022-11-24T09:34:39.685Z,15.33
2022-11-24T09:37:42.895Z,15.22
2022-11-24T09:40:46.055Z,15.30
2022-11-24T09:44:02.044Z,15.17
2022-11-24T09:47:24.371Z,15.22
2022-11-24T09:50:31.228Z,15.19
2022-11-24T09:53:42.845Z,15.27
2022-11-24T09:56:46.900Z,15.04
2022-11-24T09:59:50.051Z,15.03
2022-11-24T10:02:53.213Z,15.11
2022-11-24T10:05:56.630Z,15.14
2022-11-24T10:09:26.088Z,15.18
2022-11-24T10:12:37.309Z,15.03
2022-11-24T10:16:18.420Z,15.14
2022-11-24T10:19:36.325Z,15.18
2022-11-24T10:22:48.849Z,15.21
2022-11-24T10:25:58.892Z,15.15
2022-11-24T10:29:05.066Z,15.09
2022-11-24T10:32:33.134Z,15.20
2022-11-24T10:35:43.637Z,15.27
2022-11-24T10:38:59.865Z,15.48
2022-11-24T10:42:33.342Z,15.33
2022-11-24T10:45:38.873Z,15.38
2022-11-24T10:48:46.864Z,15.26
2022-11-24T10:52:10.994Z,15.17
2022-11-24T10:55:14.412Z,15.15
2022-11-24T10:58:17.854Z,15.03
2022-11-24T11:01:27.758Z,15.00
2022-11-24T11:04:35.976Z,14.88
2022-11-24T11:07:39.230Z,14.85
2022-11-24T11:10:45.350Z,14.91
2022-11-24T11:14:03.877Z,15.04
2022-11-24T11:17:26.421Z,15.06
2022-11-24T11:20:32.622Z,14.87
2022-11-24T11:23:37.963Z,14.97
2022-11-24T11:26:46.157Z,14.86
2022-11-24T11:36:52.934Z,14.77
2022-11-24T11:39:57.928Z,14.65
2022-11-24T11:43:03.546Z,14.70
2022-11-24T11:46:15.376Z,14.71
2022-11-24T11:49:18.654Z,14.73
2022-11-24T11:52:30.891Z,14.63
2022-11-24T11:55:50.109Z,14.54
2022-11-24T11:59:14.502Z,14.56
2022-11-24T12:02:23.925Z,14.71
2022-11-24T12:05:51.632Z,14.62
2022-11-24T12:09:31.593Z,14.57
2022-11-24T12:12:46.892Z,14.54
2022-11-24T12:15:56.679Z,14.51
2022-11-24T12:19:14.389Z,14.57
2022-11-24T12:22:39.314Z,14.59
2022-11-24T12:25:53.008Z,14.54
2022-11-24T12:29:08.092Z,14.71
2022-11-24T12:32:39.083Z,14.59
2022-11-24T12:36:09.028Z,14.58
2022-11-24T12:39:38.805Z,14.60
2022-11-24T12:43:05.205Z,14.66
2022-11-24T12:46:19.040Z,14.59
2022-11-24T12:49:37.746Z,14.65
2022-11-24T12:52:58.806Z,14.67
2022-11-24T12:56:11.860Z,14.73
2022-11-24T12:59:34.933Z,14.71
2022-11-24T13:03:18.594Z,14.79
2022-11-24T13:06:50.859Z,14.87
2022-11-24T13:10:54.193Z,14.79
2022-11-24T13:14:06.592Z,14.79
2022-11-24T13:17:43.488Z,14.75
2022-11-24T13:20:53.647Z,14.79
2022-11-24T13:24:01.153Z,14.85
2022-11-24T13:27:16.755Z,14.82
2022-11-24T13:30:35.271Z,14.87
2022-11-24T13:33:39.089Z,14.86
2022-11-24T13:37:31.833Z,14.88
2022-11-24T13:40:54.261Z,14.92
2022-11-24T13:44:16.998Z,14.96
2022-11-24T13:47:38.628Z,14.96
2022-11-24T13:50:53.912Z,15.05
2022-11-24T13:53:58.129Z,15.13
2022-11-24T13:57:35.599Z,15.16
2022-11-24T14:01:12.886Z,15.24
2022-11-24T14:04:30.647Z,15.33
2022-11-24T14:07:35.786Z,15.41
2022-11-24T14:10:42.539Z,15.51
2022-11-24T14:13:46.305Z,15.55
2022-11-24T14:16:52.247Z,15.77
2022-11-24T14:20:01.749Z,15.95
2022-11-24T14:23:05.610Z,16.04
2022-11-24T14:26:36.917Z,16.06
2022-11-24T14:30:01.445Z,16.07
2022-11-24T14:33:08.103Z,16.01
2022-11-24T14:36:16.497Z,16.12
2022-11-24T14:39:22.758Z,16.19
2022-11-24T14:42:28.761Z,16.41
2022-11-24T14:45:37.893Z,16.61
2022-11-24T14:48:48.495Z,16.62
2022-11-24T14:51:57.152Z,16.62
2022-11-24T14:55:17.388Z,16.74
2022-11-24T14:58:37.668Z,16.85
2022-11-24T15:01:43.807Z,16.97
2022-11-24T15:05:03.799Z,17.05
2022-11-24T15:08:11.475Z,16.88
2022-11-24T15:11:15.159Z,16.87
2022-11-24T15:14:33.595Z,16.91
2022-11-24T15:17:36.927Z,16.86
2022-11-24T15:20:46.862Z,17.01
2022-11-24T15:24:25.511Z,17.62
2022-11-24T15:27:28.808Z,17.67
2022-11-24T15:30:34.993Z,18.18
2022-11-24T15:33:38.427Z,18.30
2022-11-24T15:36:44.365Z,18.15
2022-11-24T15:39:47.548Z,18.12
2022-11-24T15:42:53.323Z,18.35
2022-11-24T15:45:56.703Z,18.78
2022-11-24T15:48:59.865Z,19.03
2022-11-24T15:52:03.091Z,19.31
2022-11-24T15:55:08.784Z,19.38
2022-11-24T15:58:15.346Z,19.49
2022-11-24T16:01:18.614Z,19.74
2022-11-24T16:04:22.354Z,19.76
2022-11-24T16:07:25.675Z,19.75
2022-11-24T16:10:32.129Z,19.67
2022-11-24T16:13:35.376Z,19.79
2022-11-24T16:16:38.660Z,19.84
2022-11-24T16:19:42.213Z,19.77
2022-11-24T16:22:45.863Z,20.06
2022-11-24T16:25:51.426Z,20.00
2022-11-24T16:28:54.615Z,20.17
2022-11-24T16:31:57.937Z,20.18
2022-11-24T16:35:03.167Z,20.32
2022-11-24T16:38:06.356Z,20.67
2022-11-24T16:41:10.809Z,20.89
2022-11-24T16:44:13.986Z,21.13
2022-11-24T16:47:22.148Z,21.21
2022-11-24T16:50:25.334Z,21.45
2022-11-24T16:53:28.427Z,21.43
2022-11-24T16:56:32.405Z,21.46
2022-11-24T16:59:36.727Z,21.64
2022-11-24T17:02:39.995Z,21.63
2022-11-24T17:05:43.443Z,21.63
2022-11-24T17:08:47.646Z,21.87
2022-11-24T17:11:50.943Z,21.90
2022-11-24T17:15:24.309Z,21.82
2022-11-24T17:18:24.551Z,21.68
2022-11-24T17:21:28.713Z,21.66
2022-11-24T17:24:32.032Z,21.87
2022-11-24T17:27:35.434Z,22.14
2022-11-24T17:30:38.530Z,22.29
2022-11-24T17:33:41.723Z,22.03
2022-11-24T17:36:44.876Z,22.17
2022-11-24T17:40:12.866Z,22.01
2022-11-24T17:43:14.126Z,21.95
2022-11-24T17:46:17.545Z,21.95
2022-11-24T17:49:20.772Z,22.10
2022-11-24T17:52:24.096Z,21.99
2022-11-24T17:55:27.277Z,21.91
2022-11-24T17:58:31.498Z,22.09
2022-11-24T18:01:34.971Z,22.21
2022-11-24T18:04:39.413Z,22.30
2022-11-24T18:07:44.934Z,22.11
2022-11-24T18:10:48.078Z,22.25
2022-11-24T18:14:01.091Z,22.28
2022-11-24T18:17:04.984Z,22.58
2022-11-24T18:20:08.803Z,22.58
2022-11-24T18:23:11.879Z,22.87
2022-11-24T18:26:17.060Z,22.96
2022-11-24T18:29:20.233Z,22.77
2022-11-24T18:32:23.446Z,22.81
2022-11-24T18:35:26.780Z,22.78
2022-11-24T18:38:30.234Z,22.66
2022-11-24T18:41:33.795Z,22.59
2022-11-24T18:44:37.653Z,22.51
2022-11-24T18:47:40.944Z,22.56
2022-11-24T18:50:44.048Z,22.55
2022-11-24T18:53:47.832Z,22.51
2022-11-24T18:56:51.169Z,22.33
2022-11-24T18:59:54.272Z,22.37
2022-11-24T19:02:57.451Z,22.27
2022-11-24T19:06:05.790Z,22.32
2022-11-24T19:09:17.181Z,22.18
2022-11-24T19:12:20.305Z,21.98
2022-11-24T19:15:24.588Z,21.88
2022-11-24T19:18:30.118Z,21.94
2022-11-24T19:21:35.695Z,21.73
2022-11-24T19:24:39.151Z,21.50
2022-11-24T19:27:42.390Z,21.45
2022-11-24T19:30:45.589Z,21.55
2022-11-24T19:33:48.773Z,21.46
2022-11-24T19:36:52.527Z,21.45
2022-11-24T19:39:55.708Z,21.50
2022-11-24T19:42:59.656Z,21.57
2022-11-24T19:46:09.824Z,21.43
2022-11-24T19:49:13.110Z,21.41
2022-11-24T19:52:16.306Z,21.38
2022-11-24T19:55:19.447Z,21.47
2022-11-24T19:58:22.611Z,21.35
2022-11-24T20:01:33.936Z,21.22
2022-11-24T20:04:37.317Z,21.24
2022-11-24T20:07:43.355Z,21.29
2022-11-24T20:10:46.488Z,21.13
2022-11-24T20:13:49.788Z,21.16
2022-11-24T20:16:53.519Z,21.13
2022-11-24T20:19:56.757Z,21.07
2022-11-24T20:22:59.916Z,21.08
2022-11-24T20:26:07.499Z,20.91
2022-11-24T20:29:12.827Z,20.94
2022-11-24T20:32:17.038Z,20.99
2022-11-24T20:35:20.127Z,20.93
2022-11-24T20:38:23.181Z,20.71
2022-11-24T20:41:28.950Z,20.54
2022-11-24T20:44:32.152Z,20.26
2022-11-24T20:47:35.335Z,20.29
2022-11-24T20:50:38.537Z,20.13
2022-11-24T20:53:42.144Z,19.98
2022-11-24T20:56:46.656Z,20.00
2022-11-24T21:00:01.016Z,19.79
2022-11-24T21:03:13.314Z,19.64
2022-11-24T21:06:19.372Z,19.57
2022-11-24T21:09:26.721Z,19.50
2022-11-24T21:12:29.792Z,19.55
2022-11-24T21:15:33.042Z,19.35
2022-11-24T21:18:38.091Z,19.30
2022-11-24T21:21:42.111Z,19.47
2022-11-24T21:24:45.532Z,19.40
2022-11-24T21:27:51.389Z,19.28
2022-11-24T21:30:54.616Z,19.40
2022-11-24T21:33:57.910Z,19.45
2022-11-24T21:37:01.113Z,19.37
2022-11-24T21:40:04.625Z,19.57
2022-11-24T21:43:07.806Z,19.28
2022-11-24T21:46:12.673Z,19.24
2022-11-24T21:49:15.854Z,19.40
2022-11-24T21:52:19.149Z,19.38
2022-11-24T21:55:22.220Z,19.38
2022-11-24T21:58:26.349Z,19.24
2022-11-24T22:01:29.920Z,19.24
2022-11-24T22:04:33.267Z,19.26
2022-11-24T22:07:36.629Z,19.30
2022-11-24T22:10:39.928Z,19.38
2022-11-24T22:13:44.314Z,19.26
2022-11-24T22:16:47.843Z,18.94
2022-11-24T22:19:53.834Z,18.68
2022-11-24T22:22:57.105Z,18.73
2022-11-24T22:26:12.346Z,18.87
2022-11-24T22:29:15.631Z,19.12
2022-11-24T22:32:18.768Z,19.14
2022-11-24T22:35:22.000Z,19.27
2022-11-24T22:38:25.812Z,19.42
2022-11-24T22:41:30.035Z,19.43
2022-11-24T22:44:33.276Z,19.30
2022-11-24T22:47:36.562Z,19.33
2022-11-24T22:50:42.125Z,18.41
2022-11-24T22:53:52.975Z,17.02
2022-11-24T22:56:56.190Z,16.69
2022-11-24T22:59:59.396Z,16.10
2022-11-24T23:03:03.649Z,15.69
2022-11-24T23:06:09.203Z,15.52
2022-11-24T23:09:12.679Z,15.40
2022-11-24T23:12:18.208Z,15.22
2022-11-24T23:15:21.262Z,15.11
2022-11-24T23:18:24.382Z,14.98
2022-11-24T23:21:29.994Z,14.86
2022-11-24T23:24:33.558Z,14.92
2022-11-24T23:27:36.971Z,14.76
2022-11-24T23:30:40.165Z,14.77
2022-11-24T23:33:43.813Z,14.78
2022-11-24T23:36:47.047Z,14.68
2022-11-24T23:39:52.241Z,14.83
2022-11-24T23:42:55.406Z,14.77
2022-11-24T23:46:05.525Z,14.72
2022-11-24T23:49:09.505Z,14.57
2022-11-24T23:52:12.795Z,14.67
2022-11-24T23:55:16.158Z,14.55
2022-11-24T23:58:19.304Z,14.48
